createdAt,value
2018-09-28T00:01:57.355Z,12.23
2018-09-28T00:04:31.617Z,5.28
2018-09-28T00:07:05.928Z,4.03
2018-09-28T00:09:40.408Z,41.58
2018-09-28T00:12:14.842Z,92.80
2018-09-28T00:14:49.223Z,42.35
2018-09-28T00:17:23.572Z,45.80
2018-09-28T00:19:57.907Z,18.98
2018-09-28T00:22:32.256Z,7.90
2018-09-28T00:25:06.523Z,10.65
2018-09-28T00:27:40.980Z,8.93
2018-09-28T00:30:15.495Z,5.12
2018-09-28T00:32:49.841Z,3.85
2018-09-28T00:35:24.286Z,7.67
2018-09-28T00:37:58.600Z,4.10
2018-09-28T00:40:32.935Z,8.10
2018-09-28T00:43:07.340Z,3.35
2018-09-28T00:45:41.784Z,3.58
2018-09-28T00:48:16.379Z,6.47
2018-09-28T00:50:50.677Z,5.90
2018-09-28T00:53:25.096Z,4.45
2018-09-28T00:55:59.519Z,4.30
2018-09-28T00:58:34.079Z,4.05
2018-09-28T01:01:08.454Z,3.98
2018-09-28T01:03:42.742Z,2.95
2018-09-28T01:06:17.062Z,4.10
2018-09-28T01:08:51.407Z,6.78
2018-09-28T01:11:25.715Z,5.42
2018-09-28T01:14:00.168Z,33.90
2018-09-28T01:16:34.535Z,39.20
2018-09-28T01:19:08.795Z,28.60
2018-09-28T01:21:43.177Z,56.48
2018-09-28T01:24:17.607Z,5.15
2018-09-28T01:26:51.846Z,4.78
2018-09-28T01:29:26.140Z,5.83
2018-09-28T01:32:00.464Z,5.28
2018-09-28T01:34:34.931Z,3.92
2018-09-28T01:37:09.348Z,5.12
2018-09-28T01:39:43.832Z,4.30
2018-09-28T01:42:18.144Z,6.37
2018-09-28T01:44:52.464Z,4.30
2018-09-28T01:47:26.755Z,5.22
2018-09-28T01:50:01.195Z,4.92
2018-09-28T01:52:35.455Z,5.85
2018-09-28T01:55:09.871Z,8.78
2018-09-28T01:57:44.255Z,3.87
2018-09-28T02:00:18.536Z,4.00
2018-09-28T02:02:52.910Z,8.90
2018-09-28T02:05:27.309Z,3.72
2018-09-28T02:08:01.691Z,5.75
2018-09-28T02:10:35.955Z,4.28
2018-09-28T02:13:10.354Z,3.55
2018-09-28T02:15:44.657Z,12.90
2018-09-28T02:18:18.936Z,26.90
2018-09-28T02:20:53.204Z,51.68
2018-09-28T02:23:27.601Z,44.77
2018-09-28T02:26:01.903Z,13.30
2018-09-28T02:28:36.287Z,9.63
2018-09-28T02:31:10.603Z,10.48
2018-09-28T02:33:44.991Z,6.00
2018-09-28T02:36:19.470Z,3.33
2018-09-28T02:38:53.884Z,6.30
2018-09-28T02:41:28.288Z,2.75
2018-09-28T02:44:02.631Z,8.28
2018-09-28T02:46:36.971Z,4.12
2018-09-28T02:49:11.442Z,14.47
2018-09-28T02:51:45.896Z,4.97
2018-09-28T02:54:20.332Z,3.05
2018-09-28T02:56:54.673Z,4.33
2018-09-28T02:59:29.192Z,2.52
2018-09-28T03:02:03.455Z,3.47
2018-09-28T03:04:37.736Z,3.35
2018-09-28T03:07:12.180Z,3.60
2018-09-28T03:09:46.564Z,3.30
2018-09-28T03:12:21.028Z,3.98
2018-09-28T03:14:55.467Z,2.77
2018-09-28T03:17:29.904Z,5.65
2018-09-28T03:20:04.391Z,15.43
2018-09-28T03:22:38.780Z,51.20
2018-09-28T03:25:13.262Z,39.53
2018-09-28T03:27:47.528Z,17.87
2018-09-28T03:30:21.843Z,12.05
2018-09-28T03:32:56.261Z,4.12
2018-09-28T03:35:30.703Z,4.22
2018-09-28T03:38:05.260Z,4.45
2018-09-28T03:40:39.599Z,3.95
2018-09-28T03:43:13.793Z,4.40
2018-09-28T03:45:48.104Z,9.85
2018-09-28T03:48:22.528Z,8.23
2018-09-28T03:50:56.876Z,3.33
2018-09-28T03:53:34.328Z,4.00
2018-09-28T03:56:08.763Z,4.17
2018-09-28T03:58:43.120Z,5.53
2018-09-28T04:01:17.561Z,5.30
2018-09-28T04:03:51.843Z,4.78
2018-09-28T04:06:26.238Z,4.03
2018-09-28T04:09:00.612Z,4.60
2018-09-28T04:11:35.003Z,3.77
2018-09-28T04:14:09.410Z,3.05
2018-09-28T04:16:43.673Z,3.30
2018-09-28T04:19:17.950Z,13.62
2018-09-28T04:22:01.847Z,21.15
2018-09-28T04:24:36.332Z,12.78
2018-09-28T04:27:10.639Z,19.10
2018-09-28T04:29:44.943Z,4.08
2018-09-28T04:32:19.400Z,3.20
2018-09-28T04:34:53.746Z,4.75
2018-09-28T04:37:28.032Z,3.72
2018-09-28T04:40:02.423Z,4.10
2018-09-28T04:42:36.883Z,6.30
2018-09-28T04:45:11.329Z,3.77
2018-09-28T04:47:45.571Z,5.15
2018-09-28T04:50:19.899Z,3.60
2018-09-28T04:52:54.368Z,7.37
2018-09-28T04:55:28.716Z,5.25
2018-09-28T04:58:03.173Z,5.78
2018-09-28T05:00:37.717Z,21.87
2018-09-28T05:03:12.101Z,9.73
2018-09-28T05:05:46.519Z,2.60
2018-09-28T05:08:20.931Z,7.25
2018-09-28T05:10:55.391Z,3.65
2018-09-28T05:13:29.783Z,5.80
2018-09-28T05:16:04.236Z,3.90
2018-09-28T05:18:38.691Z,12.58
2018-09-28T05:21:13.227Z,49.75
2018-09-28T05:23:47.528Z,43.60
2018-09-28T05:26:21.892Z,27.32
2018-09-28T05:28:56.640Z,8.25
2018-09-28T05:31:31.157Z,7.58
2018-09-28T05:34:05.298Z,8.40
2018-09-28T05:36:39.636Z,3.85
2018-09-28T05:39:16.970Z,7.28
2018-09-28T05:41:51.236Z,5.87
2018-09-28T05:44:25.674Z,4.25
2018-09-28T05:46:59.964Z,6.33
2018-09-28T05:49:34.180Z,3.20
2018-09-28T05:52:08.542Z,7.15
2018-09-28T05:54:42.792Z,8.58
2018-09-28T05:57:17.115Z,7.65
2018-09-28T05:59:56.724Z,5.87
2018-09-28T06:02:36.549Z,4.42
2018-09-28T06:05:16.266Z,4.45
2018-09-28T06:07:50.652Z,4.53
2018-09-28T06:10:24.960Z,8.53
2018-09-28T06:12:59.340Z,6.37
2018-09-28T06:15:33.924Z,7.55
2018-09-28T06:18:08.388Z,8.95
2018-09-28T06:20:42.772Z,21.82
2018-09-28T06:23:17.135Z,44.48
2018-09-28T06:25:51.701Z,19.57
2018-09-28T06:28:26.105Z,16.65
2018-09-28T06:31:00.540Z,7.28
2018-09-28T06:33:34.856Z,5.25
2018-09-28T06:36:09.280Z,16.77
2018-09-28T06:38:43.743Z,17.55
2018-09-28T06:41:18.181Z,8.18
2018-09-28T06:43:52.520Z,12.95
2018-09-28T06:46:26.848Z,8.63
2018-09-28T06:49:01.268Z,7.03
2018-09-28T06:51:35.705Z,19.50
2018-09-28T06:54:10.133Z,9.70
2018-09-28T06:56:44.475Z,8.60
2018-09-28T06:59:18.923Z,18.07
2018-09-28T07:01:53.207Z,12.05
2018-09-28T07:04:27.619Z,10.43
2018-09-28T07:07:02.087Z,12.53
2018-09-28T07:09:36.528Z,8.65
2018-09-28T07:12:11.015Z,13.13
2018-09-28T07:14:45.388Z,11.25
2018-09-28T07:17:19.821Z,7.42
2018-09-28T07:19:54.257Z,11.33
2018-09-28T07:22:28.696Z,22.98
2018-09-28T07:25:03.219Z,43.15
2018-09-28T07:27:37.480Z,38.98
2018-09-28T07:30:11.917Z,9.30
2018-09-28T07:32:46.180Z,10.03
2018-09-28T07:35:20.465Z,10.98
2018-09-28T07:38:01.470Z,18.35
2018-09-28T07:40:35.916Z,2.58
2018-09-28T07:43:10.272Z,8.30
2018-09-28T07:45:44.750Z,3.83
2018-09-28T07:48:19.160Z,3.42
2018-09-28T07:50:53.661Z,5.37
2018-09-28T07:53:28.084Z,6.25
2018-09-28T07:56:02.726Z,6.42
2018-09-28T07:58:37.200Z,15.60
2018-09-28T08:01:11.607Z,6.45
2018-09-28T08:03:46.118Z,6.80
2018-09-28T08:06:20.469Z,4.97
2018-09-28T08:08:54.781Z,7.10
2018-09-28T08:11:29.105Z,4.05
2018-09-28T08:14:03.389Z,9.48
2018-09-28T08:16:38.200Z,12.78
2018-09-28T08:19:12.619Z,31.93
2018-09-28T08:21:46.935Z,81.12
2018-09-28T08:24:21.312Z,57.93
2018-09-28T08:26:55.625Z,39.23
2018-09-28T08:29:30.057Z,10.48
2018-09-28T08:32:04.451Z,3.92
2018-09-28T08:34:38.835Z,15.32
2018-09-28T08:37:13.232Z,7.08
2018-09-28T08:39:47.688Z,9.23
2018-09-28T08:42:22.010Z,8.00
2018-09-28T08:44:56.354Z,5.47
2018-09-28T08:47:30.674Z,11.03
2018-09-28T08:50:05.164Z,9.50
2018-09-28T08:52:39.664Z,5.90
2018-09-28T08:55:14.123Z,6.92
2018-09-28T08:57:48.549Z,3.20
2018-09-28T09:00:23.292Z,13.45
2018-09-28T09:02:57.863Z,25.88
2018-09-28T09:05:32.388Z,13.75
2018-09-28T09:08:06.780Z,13.62
2018-09-28T09:10:41.237Z,13.32
2018-09-28T09:13:15.718Z,26.60
2018-09-28T09:15:50.197Z,11.97
2018-09-28T09:18:25.223Z,36.23
2018-09-28T09:20:59.925Z,28.65
2018-09-28T09:23:34.519Z,37.38
2018-09-28T09:26:09.007Z,27.67
2018-09-28T09:28:43.372Z,37.30
2018-09-28T09:31:17.716Z,42.62
2018-09-28T09:33:51.993Z,17.40
2018-09-28T09:36:27.223Z,44.90
2018-09-28T09:39:01.733Z,24.25
2018-09-28T09:41:40.373Z,14.18
2018-09-28T09:44:14.719Z,13.58
2018-09-28T09:46:49.293Z,19.90
2018-09-28T09:49:23.968Z,14.85
2018-09-28T09:51:58.916Z,10.32
2018-09-28T09:54:33.731Z,14.25
2018-09-28T09:57:08.744Z,12.33
2018-09-28T09:59:43.268Z,6.15
2018-09-28T10:02:23.385Z,22.70
2018-09-28T10:04:58.333Z,21.57
2018-09-28T10:07:33.095Z,15.30
2018-09-28T10:10:07.705Z,6.00
2018-09-28T10:12:42.673Z,25.55
2018-09-28T10:15:18.535Z,32.13
2018-09-28T10:17:53.058Z,48.92
2018-09-28T10:20:27.738Z,37.65
2018-09-28T10:23:02.345Z,51.95
2018-09-28T10:25:36.977Z,47.43
2018-09-28T10:28:11.739Z,33.60
2018-09-28T10:30:46.547Z,22.77
2018-09-28T10:33:21.346Z,25.92
2018-09-28T10:35:56.072Z,22.80
2018-09-28T10:38:30.706Z,15.60
2018-09-28T10:41:05.461Z,14.47
2018-09-28T10:43:40.049Z,17.15
2018-09-28T10:46:15.561Z,15.88
2018-09-28T10:48:50.068Z,22.48
2018-09-28T10:51:24.743Z,9.10
2018-09-28T10:53:59.077Z,18.82
2018-09-28T10:56:33.668Z,18.45
2018-09-28T11:01:57.157Z,11.28
2018-09-28T11:04:31.838Z,11.45
2018-09-28T11:07:06.561Z,35.60
2018-09-28T11:09:41.121Z,10.90
2018-09-28T11:12:15.632Z,30.80
2018-09-28T11:14:50.073Z,34.50
2018-09-28T11:17:24.828Z,33.25
2018-09-28T11:19:59.401Z,62.95
2018-09-28T11:22:33.997Z,23.62
2018-09-28T11:25:08.624Z,21.68
2018-09-28T11:27:43.180Z,7.50
2018-09-28T11:30:17.828Z,26.00
2018-09-28T11:32:52.436Z,23.38
2018-09-28T11:35:26.921Z,7.12
2018-09-28T11:38:01.468Z,11.22
2018-09-28T11:40:35.974Z,9.63
2018-09-28T11:43:10.497Z,6.78
2018-09-28T11:45:45.100Z,14.23
2018-09-28T11:48:19.711Z,17.15
2018-09-28T11:50:54.120Z,30.17
2018-09-28T11:53:28.785Z,20.08
2018-09-28T11:56:04.085Z,47.25
2018-09-28T11:58:38.688Z,9.00
2018-09-28T12:01:13.550Z,24.37
2018-09-28T12:03:48.159Z,28.95
2018-09-28T12:06:22.827Z,20.75
2018-09-28T12:08:57.477Z,11.63
2018-09-28T12:11:32.059Z,7.70
2018-09-28T12:14:06.634Z,30.55
2018-09-28T12:16:41.172Z,59.90
2018-09-28T12:19:15.649Z,51.68
2018-09-28T12:21:50.396Z,66.30
2018-09-28T12:24:24.957Z,9.35
2018-09-28T12:27:00.738Z,25.65
2018-09-28T12:29:35.468Z,26.25
2018-09-28T12:32:09.990Z,31.30
2018-09-28T12:34:44.874Z,20.30
2018-09-28T12:37:19.487Z,21.30
2018-09-28T12:39:54.630Z,17.73
2018-09-28T12:42:29.661Z,12.82
2018-09-28T12:45:04.358Z,26.87
2018-09-28T12:47:38.877Z,24.70
2018-09-28T12:50:13.875Z,14.20
2018-09-28T12:52:48.749Z,18.57
2018-09-28T12:55:24.312Z,10.95
2018-09-28T12:57:58.915Z,18.95
2018-09-28T13:00:33.809Z,49.15
2018-09-28T13:03:08.574Z,22.20
2018-09-28T13:05:43.480Z,12.95
2018-09-28T13:08:18.068Z,21.57
2018-09-28T13:10:52.676Z,24.72
2018-09-28T13:13:27.219Z,41.20
2018-09-28T13:16:01.655Z,48.85
2018-09-28T13:18:36.503Z,31.45
2018-09-28T13:21:11.074Z,24.63
2018-09-28T13:23:45.865Z,19.12
2018-09-28T13:26:20.645Z,12.45
2018-09-28T13:28:55.151Z,8.05
2018-09-28T13:31:29.933Z,8.70
2018-09-28T13:34:04.540Z,8.43
2018-09-28T13:36:39.117Z,8.60
2018-09-28T13:39:13.695Z,7.92
2018-09-28T13:41:48.324Z,7.25
2018-09-28T13:44:23.061Z,15.30
2018-09-28T13:46:57.695Z,11.55
2018-09-28T13:49:32.356Z,5.12
2018-09-28T13:52:06.933Z,6.95
2018-09-28T13:54:41.514Z,10.28
2018-09-28T13:57:16.045Z,7.17
2018-09-28T13:59:50.447Z,7.62
2018-09-28T14:02:25.069Z,18.80
2018-09-28T14:04:59.584Z,9.28
2018-09-28T14:07:34.034Z,9.38
2018-09-28T14:10:08.631Z,16.10
2018-09-28T14:12:43.496Z,49.63
2018-09-28T14:15:17.910Z,30.88
2018-09-28T14:17:52.360Z,35.78
2018-09-28T14:20:26.933Z,27.62
2018-09-28T14:23:01.165Z,10.70
2018-09-28T14:25:35.843Z,6.80
2018-09-28T14:28:10.417Z,7.05
2018-09-28T14:30:45.159Z,13.30
2018-09-28T14:33:19.748Z,14.40
2018-09-28T14:35:54.228Z,7.17
2018-09-28T14:38:28.819Z,7.42
2018-09-28T14:41:03.505Z,6.25
2018-09-28T14:43:38.204Z,10.03
2018-09-28T14:46:12.709Z,7.80
2018-09-28T14:48:47.340Z,5.70
2018-09-28T14:51:21.800Z,9.20
2018-09-28T14:53:56.336Z,5.70
2018-09-28T14:56:30.736Z,10.40
2018-09-28T14:59:05.086Z,13.48
2018-09-28T15:01:39.489Z,13.53
2018-09-28T15:04:14.116Z,8.10
2018-09-28T15:06:48.627Z,7.65
2018-09-28T15:09:22.889Z,8.38
2018-09-28T15:11:57.355Z,30.20
2018-09-28T15:14:31.862Z,49.53
2018-09-28T15:17:06.324Z,28.40
2018-09-28T15:19:40.785Z,21.82
2018-09-28T15:22:15.087Z,12.78
2018-09-28T15:24:49.940Z,5.37
2018-09-28T15:27:24.563Z,11.30
2018-09-28T15:29:59.023Z,13.20
2018-09-28T15:32:33.267Z,10.50
2018-09-28T15:35:07.725Z,6.45
2018-09-28T15:37:42.268Z,17.23
2018-09-28T15:40:16.705Z,8.60
2018-09-28T15:42:51.164Z,10.32
2018-09-28T15:45:25.920Z,12.13
2018-09-28T15:48:00.483Z,7.05
2018-09-28T15:50:35.012Z,10.13
2018-09-28T15:53:09.279Z,16.90
2018-09-28T15:55:43.705Z,13.95
2018-09-28T15:58:18.152Z,9.78
2018-09-28T16:00:52.479Z,22.35
2018-09-28T16:03:26.813Z,10.32
2018-09-28T16:06:01.119Z,23.02
2018-09-28T16:08:35.468Z,15.28
2018-09-28T16:11:09.839Z,20.57
2018-09-28T16:13:44.341Z,36.03
2018-09-28T16:16:18.850Z,92.50
2018-09-28T16:18:53.299Z,52.90
2018-09-28T16:21:27.691Z,37.98
2018-09-28T16:24:02.074Z,24.90
2018-09-28T16:26:36.370Z,12.18
2018-09-28T16:29:11.055Z,9.58
2018-09-28T16:31:45.492Z,8.33
2018-09-28T16:34:20.383Z,17.75
2018-09-28T16:36:55.801Z,7.10
2018-09-28T16:39:30.302Z,4.20
2018-09-28T16:42:04.975Z,16.97
2018-09-28T16:44:39.434Z,17.42
2018-09-28T16:47:13.752Z,11.30
2018-09-28T16:49:48.137Z,49.25
2018-09-28T16:52:22.423Z,24.60
2018-09-28T16:54:56.995Z,13.80
2018-09-28T16:57:32.650Z,13.75
2018-09-28T17:00:07.329Z,14.25
2018-09-28T17:02:41.730Z,25.97
2018-09-28T17:05:16.124Z,10.55
2018-09-28T17:07:50.564Z,13.28
2018-09-28T17:10:25.045Z,10.78
2018-09-28T17:12:59.394Z,29.82
2018-09-28T17:15:33.705Z,71.87
2018-09-28T17:18:08.371Z,44.95
2018-09-28T17:20:42.669Z,16.80
2018-09-28T17:23:17.011Z,13.40
2018-09-28T17:25:51.475Z,9.48
2018-09-28T17:28:25.956Z,11.53
2018-09-28T17:31:00.208Z,10.68
2018-09-28T17:33:34.588Z,10.65
2018-09-28T17:36:09.024Z,20.82
2018-09-28T17:38:43.597Z,19.37
2018-09-28T17:41:17.977Z,6.37
2018-09-28T17:43:52.363Z,26.62
2018-09-28T17:46:26.660Z,126.05
2018-09-28T17:49:01.108Z,122.65
2018-09-28T17:51:35.767Z,39.75
2018-09-28T18:47:33.879Z,62.95
2018-09-28T18:50:08.371Z,14.47
2018-09-28T18:52:42.860Z,22.62
2018-09-28T18:55:17.363Z,5.95
2018-09-28T18:57:51.698Z,7.95
2018-09-28T19:00:26.168Z,10.75
2018-09-28T19:03:00.448Z,10.55
2018-09-28T19:05:35.503Z,10.80
2018-09-28T19:08:09.977Z,8.53
2018-09-28T19:10:44.557Z,12.00
2018-09-28T19:13:19.303Z,10.32
2018-09-28T19:15:53.651Z,9.43
2018-09-28T19:18:28.023Z,8.15
2018-09-28T19:21:02.353Z,10.80
2018-09-28T19:23:36.684Z,11.75
2018-09-28T19:26:10.912Z,9.88
2018-09-28T19:28:45.220Z,11.08
2018-09-28T19:31:19.520Z,10.45
2018-09-28T19:33:53.930Z,8.70
2018-09-28T19:36:28.156Z,8.15
2018-09-28T19:39:02.439Z,11.45
2018-09-28T19:41:37.208Z,14.30
2018-09-28T19:44:11.739Z,16.87
2018-09-28T19:46:46.291Z,61.88
2018-09-28T19:49:20.787Z,34.92
2018-09-28T19:51:55.071Z,61.53
2018-09-28T19:54:29.370Z,10.53
2018-09-28T19:57:03.915Z,7.37
2018-09-28T19:59:38.255Z,11.08
2018-09-28T20:02:12.807Z,9.00
2018-09-28T20:04:47.198Z,11.95
2018-09-28T20:07:21.740Z,11.85
2018-09-28T20:09:56.136Z,10.93
2018-09-28T20:12:30.479Z,6.67
2018-09-28T20:15:04.914Z,7.67
2018-09-28T20:17:39.194Z,8.20
2018-09-28T20:20:13.525Z,8.75
2018-09-28T20:22:47.800Z,6.25
2018-09-28T20:25:22.069Z,10.58
2018-09-28T20:27:56.319Z,6.15
2018-09-28T20:30:30.692Z,16.57
2018-09-28T20:33:05.059Z,16.60
2018-09-28T20:35:39.457Z,6.35
2018-09-28T20:38:13.891Z,11.78
2018-09-28T20:40:48.271Z,11.80
2018-09-28T20:43:22.664Z,10.18
2018-09-28T20:45:57.100Z,30.23
2018-09-28T20:48:31.527Z,37.98
2018-09-28T20:51:05.856Z,54.55
2018-09-28T20:53:40.395Z,37.85
2018-09-28T20:56:14.693Z,26.70
2018-09-28T20:58:49.119Z,14.50
2018-09-28T21:01:23.643Z,14.68
2018-09-28T21:03:58.160Z,9.50
2018-09-28T21:06:32.665Z,14.15
2018-09-28T21:09:08.595Z,14.25
2018-09-28T21:11:43.050Z,9.90
2018-09-28T21:14:17.499Z,11.65
2018-09-28T21:16:51.947Z,10.88
2018-09-28T21:19:26.475Z,11.57
2018-09-28T21:22:00.964Z,11.65
2018-09-28T21:24:35.423Z,9.25
2018-09-28T21:27:09.656Z,16.95
2018-09-28T21:29:44.059Z,16.37
2018-09-28T21:32:18.428Z,18.32
2018-09-28T21:34:52.956Z,15.53
2018-09-28T21:37:27.371Z,27.37
2018-09-28T21:40:01.722Z,12.45
2018-09-28T21:42:36.305Z,13.45
2018-09-28T21:45:10.615Z,19.52
2018-09-28T21:47:44.893Z,31.07
2018-09-28T21:50:19.288Z,63.52
2018-09-28T21:52:53.705Z,44.45
2018-09-28T21:55:28.104Z,30.10
2018-09-28T21:58:02.462Z,27.55
2018-09-28T22:00:38.508Z,15.55
2018-09-28T22:03:12.819Z,12.85
2018-09-28T22:05:47.215Z,11.12
2018-09-28T22:08:21.655Z,13.58
2018-09-28T22:10:56.033Z,16.17
2018-09-28T22:13:30.324Z,14.63
2018-09-28T22:16:04.707Z,10.70
2018-09-28T22:18:38.963Z,15.20
2018-09-28T22:21:13.271Z,16.82
2018-09-28T22:23:47.531Z,12.30
2018-09-28T22:26:21.956Z,13.40
2018-09-28T22:28:56.323Z,9.95
2018-09-28T22:31:31.827Z,13.08
2018-09-28T22:34:06.261Z,14.98
2018-09-28T22:36:40.592Z,9.70
2018-09-28T22:39:15.035Z,8.95
2018-09-28T22:41:49.452Z,12.47
2018-09-28T22:44:23.844Z,16.75
2018-09-28T22:46:58.333Z,21.70
2018-09-28T22:49:32.650Z,38.15
2018-09-28T22:52:07.027Z,68.62
2018-09-28T22:54:41.374Z,34.35
2018-09-28T22:57:20.647Z,23.70
2018-09-28T22:59:55.052Z,7.65
2018-09-28T23:02:29.395Z,7.83
2018-09-28T23:05:03.711Z,13.03
2018-09-28T23:07:38.091Z,10.53
2018-09-28T23:10:12.532Z,8.00
2018-09-28T23:12:47.180Z,9.78
2018-09-28T23:15:21.567Z,10.30
2018-09-28T23:17:56.100Z,6.08
2018-09-28T23:20:30.404Z,6.10
2018-09-28T23:23:04.796Z,7.40
2018-09-28T23:25:40.289Z,6.08
2018-09-28T23:28:14.707Z,11.93
2018-09-28T23:30:49.155Z,9.05
2018-09-28T23:33:23.625Z,8.28
2018-09-28T23:35:58.005Z,5.92
2018-09-28T23:38:32.586Z,6.65
2018-09-28T23:41:07.036Z,9.48
2018-09-28T23:43:41.468Z,5.58
2018-09-28T23:46:15.742Z,18.00
2018-09-28T23:48:50.071Z,36.83
2018-09-28T23:51:24.319Z,51.83
2018-09-28T23:53:58.680Z,46.40
2018-09-28T23:56:32.953Z,24.57
2018-09-28T23:59:07.360Z,23.12
